sensor_id;sensor_type;location;lat;lon;timestamp;pressure;altitude;pressure_sealevel;temperature;humidity
59767;BME280;46248;58.364;25.582;2023-01-28T00:01:14;101828.44;;;-3.72;96.02
59767;BME280;46248;58.364;25.582;2023-01-28T00:04:36;101825.00;;;-3.73;95.76
59767;BME280;46248;58.364;25.582;2023-01-28T00:07:59;101827.63;;;-3.70;96.00
59767;BME280;46248;58.364;25.582;2023-01-28T00:11:21;101836.31;;;-3.64;95.89
59767;BME280;46248;58.364;25.582;2023-01-28T00:14:43;101832.13;;;-3.62;95.98
59767;BME280;46248;58.364;25.582;2023-01-28T00:18:05;101833.75;;;-3.66;95.10
59767;BME280;46248;58.364;25.582;2023-01-28T00:21:27;101824.19;;;-3.72;95.46
59767;BME280;46248;58.364;25.582;2023-01-28T00:24:52;101826.69;;;-3.73;95.87
59767;BME280;46248;58.364;25.582;2023-01-28T00:28:14;101818.75;;;-3.82;95.87
59767;BME280;46248;58.364;25.582;2023-01-28T00:31:36;101834.34;;;-3.75;96.22
59767;BME280;46248;58.364;25.582;2023-01-28T00:34:58;101812.88;;;-3.80;96.73
59767;BME280;46248;58.364;25.582;2023-01-28T00:38:20;101813.78;;;-3.78;96.64
59767;BME280;46248;58.364;25.582;2023-01-28T00:41:43;101805.88;;;-3.85;97.27
59767;BME280;46248;58.364;25.582;2023-01-28T00:45:06;101776.59;;;-3.95;97.25
59767;BME280;46248;58.364;25.582;2023-01-28T00:48:28;101786.06;;;-3.93;96.95
59767;BME280;46248;58.364;25.582;2023-01-28T00:51:50;101816.38;;;-3.76;97.13
59767;BME280;46248;58.364;25.582;2023-01-28T00:55:12;101804.44;;;-3.76;96.61
59767;BME280;46248;58.364;25.582;2023-01-28T00:58:36;101810.53;;;-3.72;96.41
59767;BME280;46248;58.364;25.582;2023-01-28T01:02:00;101803.72;;;-3.72;96.56
59767;BME280;46248;58.364;25.582;2023-01-28T01:05:32;101787.28;;;-3.78;96.22
59767;BME280;46248;58.364;25.582;2023-01-28T01:08:54;101801.84;;;-3.77;96.71
59767;BME280;46248;58.364;25.582;2023-01-28T01:12:16;101793.22;;;-3.81;96.42
59767;BME280;46248;58.364;25.582;2023-01-28T01:15:40;101796.66;;;-3.79;96.08
59767;BME280;46248;58.364;25.582;2023-01-28T01:19:03;101793.09;;;-3.85;96.34
59767;BME280;46248;58.364;25.582;2023-01-28T01:22:26;101789.59;;;-3.87;96.96
59767;BME280;46248;58.364;25.582;2023-01-28T01:25:48;101788.09;;;-3.81;96.95
59767;BME280;46248;58.364;25.582;2023-01-28T01:29:09;101785.56;;;-3.81;97.11
59767;BME280;46248;58.364;25.582;2023-01-28T01:32:33;101789.66;;;-3.86;97.02
59767;BME280;46248;58.364;25.582;2023-01-28T01:35:56;101784.28;;;-3.95;96.85
59767;BME280;46248;58.364;25.582;2023-01-28T01:39:18;101783.25;;;-4.02;96.75
59767;BME280;46248;58.364;25.582;2023-01-28T01:42:41;101786.59;;;-4.03;97.02
59767;BME280;46248;58.364;25.582;2023-01-28T01:46:03;101780.69;;;-4.02;97.43
59767;BME280;46248;58.364;25.582;2023-01-28T01:49:27;101779.03;;;-4.00;97.49
59767;BME280;46248;58.364;25.582;2023-01-28T01:52:53;101778.13;;;-4.02;97.40
59767;BME280;46248;58.364;25.582;2023-01-28T01:56:20;101778.13;;;-4.02;97.47
59767;BME280;46248;58.364;25.582;2023-01-28T01:59:44;101780.63;;;-4.03;97.24
59767;BME280;46248;58.364;25.582;2023-01-28T02:03:07;101765.03;;;-4.12;97.33
59767;BME280;46248;58.364;25.582;2023-01-28T02:06:31;101766.72;;;-4.13;97.72
59767;BME280;46248;58.364;25.582;2023-01-28T02:09:53;101755.47;;;-4.18;98.09
59767;BME280;46248;58.364;25.582;2023-01-28T02:13:16;101753.75;;;-4.19;97.90
59767;BME280;46248;58.364;25.582;2023-01-28T02:16:40;101749.31;;;-4.25;98.33
59767;BME280;46248;58.364;25.582;2023-01-28T02:20:05;101739.69;;;-4.33;98.41
59767;BME280;46248;58.364;25.582;2023-01-28T02:23:44;101752.47;;;-4.33;98.40
59767;BME280;46248;58.364;25.582;2023-01-28T02:27:26;101758.34;;;-4.36;98.53
59767;BME280;46248;58.364;25.582;2023-01-28T02:30:55;101745.63;;;-4.34;98.60
59767;BME280;46248;58.364;25.582;2023-01-28T02:34:24;101741.34;;;-4.35;98.92
59767;BME280;46248;58.364;25.582;2023-01-28T02:37:54;101742.25;;;-4.33;98.80
59767;BME280;46248;58.364;25.582;2023-01-28T02:41:24;101747.38;;;-4.33;99.02
59767;BME280;46248;58.364;25.582;2023-01-28T02:44:48;101751.72;;;-4.31;99.68
59767;BME280;46248;58.364;25.582;2023-01-28T02:48:11;101746.59;;;-4.31;99.95
59767;BME280;46248;58.364;25.582;2023-01-28T02:51:53;101726.53;;;-4.47;99.57
59767;BME280;46248;58.364;25.582;2023-01-28T02:55:28;101736.97;;;-4.40;99.28
59767;BME280;46248;58.364;25.582;2023-01-28T02:58:57;101736.25;;;-4.35;99.00
59767;BME280;46248;58.364;25.582;2023-01-28T03:02:44;101750.78;;;-4.33;99.38
59767;BME280;46248;58.364;25.582;2023-01-28T03:06:14;101747.16;;;-4.41;99.18
59767;BME280;46248;58.364;25.582;2023-01-28T03:09:39;101754.94;;;-4.37;99.42
59767;BME280;46248;58.364;25.582;2023-01-28T03:13:05;101753.16;;;-4.39;99.29
59767;BME280;46248;58.364;25.582;2023-01-28T03:16:45;101736.94;;;-4.41;99.69
59767;BME280;46248;58.364;25.582;2023-01-28T03:20:27;101744.69;;;-4.38;99.83
59767;BME280;46248;58.364;25.582;2023-01-28T03:24:11;101741.22;;;-4.40;99.74
59767;BME280;46248;58.364;25.582;2023-01-28T03:27:55;101741.13;;;-4.43;99.80
59767;BME280;46248;58.364;25.582;2023-01-28T03:31:37;101735.00;;;-4.48;99.57
59767;BME280;46248;58.364;25.582;2023-01-28T03:35:20;101735.97;;;-4.45;99.86
59767;BME280;46248;58.364;25.582;2023-01-28T03:39:01;101734.19;;;-4.47;99.68
59767;BME280;46248;58.364;25.582;2023-01-28T03:42:24;101742.66;;;-4.48;100.00
59767;BME280;46248;58.364;25.582;2023-01-28T03:45:46;101739.91;;;-4.56;99.33
59767;BME280;46248;58.364;25.582;2023-01-28T03:49:11;101739.06;;;-4.55;99.62
59767;BME280;46248;58.364;25.582;2023-01-28T03:52:35;101726.25;;;-4.56;99.95
59767;BME280;46248;58.364;25.582;2023-01-28T03:55:56;101718.63;;;-4.55;99.90
59767;BME280;46248;58.364;25.582;2023-01-28T03:59:20;101711.72;;;-4.57;100.00
59767;BME280;46248;58.364;25.582;2023-01-28T04:02:42;101722.97;;;-4.51;100.00
59767;BME280;46248;58.364;25.582;2023-01-28T04:06:05;101723.88;;;-4.50;100.00
59767;BME280;46248;58.364;25.582;2023-01-28T04:09:28;101721.13;;;-4.56;99.54
59767;BME280;46248;58.364;25.582;2023-01-28T04:12:50;101717.66;;;-4.58;99.06
59767;BME280;46248;58.364;25.582;2023-01-28T04:16:16;101725.25;;;-4.60;99.50
59767;BME280;46248;58.364;25.582;2023-01-28T04:19:38;101723.41;;;-4.66;98.96
59767;BME280;46248;58.364;25.582;2023-01-28T04:23:01;101719.03;;;-4.70;99.40
59767;BME280;46248;58.364;25.582;2023-01-28T04:26:23;101718.91;;;-4.74;99.38
59767;BME280;46248;58.364;25.582;2023-01-28T04:29:45;101708.09;;;-4.66;99.76
59767;BME280;46248;58.364;25.582;2023-01-28T04:33:08;101694.41;;;-4.66;99.46
59767;BME280;46248;58.364;25.582;2023-01-28T04:36:30;101692.84;;;-4.63;99.82
59767;BME280;46248;58.364;25.582;2023-01-28T04:39:53;101686.16;;;-4.57;99.42
59767;BME280;46248;58.364;25.582;2023-01-28T04:43:14;101687.34;;;-4.46;99.48
59767;BME280;46248;58.364;25.582;2023-01-28T04:46:37;101681.38;;;-4.47;99.25
59767;BME280;46248;58.364;25.582;2023-01-28T04:50:00;101686.69;;;-4.39;99.14
59767;BME280;46248;58.364;25.582;2023-01-28T04:53:22;101675.56;;;-4.41;99.18
59767;BME280;46248;58.364;25.582;2023-01-28T04:56:44;101675.59;;;-4.40;99.39
59767;BME280;46248;58.364;25.582;2023-01-28T05:00:07;101677.38;;;-4.37;99.61
59767;BME280;46248;58.364;25.582;2023-01-28T05:03:30;101679.19;;;-4.33;99.79
59767;BME280;46248;58.364;25.582;2023-01-28T05:06:56;101680.09;;;-4.32;99.71
59767;BME280;46248;58.364;25.582;2023-01-28T05:10:19;101668.31;;;-4.26;99.75
59767;BME280;46248;58.364;25.582;2023-01-28T05:13:41;101682.00;;;-4.24;99.55
59767;BME280;46248;58.364;25.582;2023-01-28T05:17:04;101675.16;;;-4.25;99.49
59767;BME280;46248;58.364;25.582;2023-01-28T05:20:26;101681.22;;;-4.21;98.94
59767;BME280;46248;58.364;25.582;2023-01-28T05:23:49;101671.00;;;-4.21;99.06
59767;BME280;46248;58.364;25.582;2023-01-28T05:27:12;101651.41;;;-4.21;98.70
59767;BME280;46248;58.364;25.582;2023-01-28T05:30:34;101647.94;;;-4.23;98.53
59767;BME280;46248;58.364;25.582;2023-01-28T05:33:56;101642.88;;;-4.21;98.43
59767;BME280;46248;58.364;25.582;2023-01-28T05:37:18;101648.84;;;-4.21;98.47
59767;BME280;46248;58.364;25.582;2023-01-28T05:40:41;101630.78;;;-4.27;98.37
59767;BME280;46248;58.364;25.582;2023-01-28T05:44:04;101645.50;;;-4.18;98.70
59767;BME280;46248;58.364;25.582;2023-01-28T05:47:26;101654.09;;;-4.16;98.49
59767;BME280;46248;58.364;25.582;2023-01-28T05:50:48;101645.41;;;-4.21;98.34
59767;BME280;46248;58.364;25.582;2023-01-28T05:54:10;101638.69;;;-4.18;98.41
59767;BME280;46248;58.364;25.582;2023-01-28T05:57:34;101637.03;;;-4.17;98.56
59767;BME280;46248;58.364;25.582;2023-01-28T06:00:56;101632.00;;;-4.14;98.73
59767;BME280;46248;58.364;25.582;2023-01-28T06:04:18;101634.63;;;-4.11;98.63
59767;BME280;46248;58.364;25.582;2023-01-28T06:07:43;101634.66;;;-4.09;98.58
59767;BME280;46248;58.364;25.582;2023-01-28T06:11:05;101629.59;;;-4.08;98.49
59767;BME280;46248;58.364;25.582;2023-01-28T06:14:29;101625.38;;;-4.06;98.72
59767;BME280;46248;58.364;25.582;2023-01-28T06:17:51;101613.41;;;-4.07;98.39
59767;BME280;46248;58.364;25.582;2023-01-28T06:21:13;101624.59;;;-4.03;98.40
59767;BME280;46248;58.364;25.582;2023-01-28T06:24:34;101613.50;;;-4.04;98.50
59767;BME280;46248;58.364;25.582;2023-01-28T06:27:56;101606.75;;;-4.00;98.53
59767;BME280;46248;58.364;25.582;2023-01-28T06:31:19;101609.38;;;-3.99;98.32
59767;BME280;46248;58.364;25.582;2023-01-28T06:34:41;101607.69;;;-3.97;98.24
59767;BME280;46248;58.364;25.582;2023-01-28T06:38:03;101597.59;;;-3.92;98.29
59767;BME280;46248;58.364;25.582;2023-01-28T06:41:25;101595.88;;;-3.92;98.03
59767;BME280;46248;58.364;25.582;2023-01-28T06:44:47;101596.75;;;-3.91;97.78
59767;BME280;46248;58.364;25.582;2023-01-28T06:48:10;101596.75;;;-3.91;97.95
59767;BME280;46248;58.364;25.582;2023-01-28T06:51:32;101592.56;;;-3.87;97.74
59767;BME280;46248;58.364;25.582;2023-01-28T06:54:54;101594.34;;;-3.85;97.60
59767;BME280;46248;58.364;25.582;2023-01-28T06:58:16;101599.47;;;-3.85;97.53
59767;BME280;46248;58.364;25.582;2023-01-28T07:01:38;101597.81;;;-3.83;97.39
59767;BME280;46248;58.364;25.582;2023-01-28T07:05:02;101600.47;;;-3.80;97.51
59767;BME280;46248;58.364;25.582;2023-01-28T07:08:24;101592.81;;;-3.78;97.13
59767;BME280;46248;58.364;25.582;2023-01-28T07:11:48;101590.09;;;-3.84;97.11
59767;BME280;46248;58.364;25.582;2023-01-28T07:15:10;101582.47;;;-3.83;96.71
59767;BME280;46248;58.364;25.582;2023-01-28T07:18:34;101600.56;;;-3.75;96.65
59767;BME280;46248;58.364;25.582;2023-01-28T07:21:57;101587.03;;;-3.71;97.07
59767;BME280;46248;58.364;25.582;2023-01-28T07:25:22;101582.84;;;-3.67;96.57
59767;BME280;46248;58.364;25.582;2023-01-28T07:28:44;101587.13;;;-3.66;96.44
59767;BME280;46248;58.364;25.582;2023-01-28T07:32:06;101576.88;;;-3.66;96.57
59767;BME280;46248;58.364;25.582;2023-01-28T07:35:29;101577.78;;;-3.64;95.87
59767;BME280;46248;58.364;25.582;2023-01-28T07:38:53;101571.81;;;-3.63;95.83
59767;BME280;46248;58.364;25.582;2023-01-28T07:42:16;101583.84;;;-3.61;95.71
59767;BME280;46248;58.364;25.582;2023-01-28T07:45:38;101579.63;;;-3.59;95.45
59767;BME280;46248;58.364;25.582;2023-01-28T07:49:01;101578.00;;;-3.55;95.36
59767;BME280;46248;58.364;25.582;2023-01-28T07:52:23;101588.28;;;-3.54;95.44
59767;BME280;46248;58.364;25.582;2023-01-28T07:55:46;101593.50;;;-3.51;95.41
59767;BME280;46248;58.364;25.582;2023-01-28T07:59:08;101585.03;;;-3.47;95.04
59767;BME280;46248;58.364;25.582;2023-01-28T08:02:30;101572.16;;;-3.50;94.40
59767;BME280;46248;58.364;25.582;2023-01-28T08:05:53;101573.88;;;-3.49;94.31
59767;BME280;46248;58.364;25.582;2023-01-28T08:09:16;101573.06;;;-3.48;94.09
59767;BME280;46248;58.364;25.582;2023-01-28T08:12:39;101562.91;;;-3.44;94.29
59767;BME280;46248;58.364;25.582;2023-01-28T08:16:02;101562.91;;;-3.43;93.42
59767;BME280;46248;58.364;25.582;2023-01-28T08:19:25;101561.22;;;-3.42;93.22
59767;BME280;46248;58.364;25.582;2023-01-28T08:22:47;101553.53;;;-3.42;92.99
59767;BME280;46248;58.364;25.582;2023-01-28T08:26:08;101542.50;;;-3.40;92.97
59767;BME280;46248;58.364;25.582;2023-01-28T08:29:32;101534.88;;;-3.38;93.18
59767;BME280;46248;58.364;25.582;2023-01-28T08:32:55;101534.97;;;-3.34;92.88
59767;BME280;46248;58.364;25.582;2023-01-28T08:36:17;101527.28;;;-3.34;92.42
59767;BME280;46248;58.364;25.582;2023-01-28T08:39:39;101519.66;;;-3.31;92.38
59767;BME280;46248;58.364;25.582;2023-01-28T08:43:04;101518.03;;;-3.27;91.71
59767;BME280;46248;58.364;25.582;2023-01-28T08:46:27;101511.97;;;-3.32;91.30
59767;BME280;46248;58.364;25.582;2023-01-28T08:49:49;101500.81;;;-3.34;91.73
59767;BME280;46248;58.364;25.582;2023-01-28T08:53:13;101501.00;;;-3.25;91.98
59767;BME280;46248;58.364;25.582;2023-01-28T08:56:35;101501.06;;;-3.22;91.92
59767;BME280;46248;58.364;25.582;2023-01-28T08:59:58;101496.00;;;-3.20;90.70
59767;BME280;46248;58.364;25.582;2023-01-28T09:03:21;101488.44;;;-3.14;91.48
59767;BME280;46248;58.364;25.582;2023-01-28T09:06:43;101480.75;;;-3.13;91.35
59767;BME280;46248;58.364;25.582;2023-01-28T09:10:06;101496.25;;;-3.07;90.86
59767;BME280;46248;58.364;25.582;2023-01-28T09:13:28;101480.94;;;-3.04;90.59
59767;BME280;46248;58.364;25.582;2023-01-28T09:16:51;101472.41;;;-3.03;90.69
59767;BME280;46248;58.364;25.582;2023-01-28T09:20:15;101463.91;;;-3.00;90.32
59767;BME280;46248;58.364;25.582;2023-01-28T09:23:37;101457.09;;;-3.00;90.26
59767;BME280;46248;58.364;25.582;2023-01-28T09:26:59;101445.94;;;-3.03;89.48
59767;BME280;46248;58.364;25.582;2023-01-28T09:30:21;101442.63;;;-2.97;90.00
59767;BME280;46248;58.364;25.582;2023-01-28T09:33:44;101433.28;;;-2.95;89.29
59767;BME280;46248;58.364;25.582;2023-01-28T09:37:07;101433.34;;;-2.92;89.06
59767;BME280;46248;58.364;25.582;2023-01-28T09:40:34;101427.31;;;-2.94;87.75
59767;BME280;46248;58.364;25.582;2023-01-28T09:44:16;101423.94;;;-2.92;88.99
59767;BME280;46248;58.364;25.582;2023-01-28T09:47:45;101419.66;;;-2.93;88.28
59767;BME280;46248;58.364;25.582;2023-01-28T09:51:13;101418.06;;;-2.86;87.97
59767;BME280;46248;58.364;25.582;2023-01-28T09:54:42;101412.91;;;-2.88;87.97
59767;BME280;46248;58.364;25.582;2023-01-28T09:58:09;101421.53;;;-2.84;88.41
59767;BME280;46248;58.364;25.582;2023-01-28T10:01:40;101406.09;;;-2.86;88.17
59767;BME280;46248;58.364;25.582;2023-01-28T10:05:16;101414.72;;;-2.82;88.19
59767;BME280;46248;58.364;25.582;2023-01-28T10:08:57;101407.81;;;-2.85;88.41
59767;BME280;46248;58.364;25.582;2023-01-28T10:12:36;101400.09;;;-2.88;88.10
59767;BME280;46248;58.364;25.582;2023-01-28T10:16:08;101399.16;;;-2.91;87.81
59767;BME280;46248;58.364;25.582;2023-01-28T10:19:35;101369.88;;;-3.06;88.85
59767;BME280;46248;58.364;25.582;2023-01-28T10:23:05;101391.56;;;-2.87;88.04
59767;BME280;46248;58.364;25.582;2023-01-28T10:26:33;101383.88;;;-2.87;88.88
59767;BME280;46248;58.364;25.582;2023-01-28T10:29:58;101379.59;;;-2.88;87.41
59767;BME280;46248;58.364;25.582;2023-01-28T10:33:23;101367.66;;;-2.86;87.36
59767;BME280;46248;58.364;25.582;2023-01-28T10:36:50;101371.03;;;-2.90;87.25
59767;BME280;46248;58.364;25.582;2023-01-28T10:40:14;101366.72;;;-2.91;87.69
59767;BME280;46248;58.364;25.582;2023-01-28T10:43:38;101370.28;;;-2.84;88.71
59767;BME280;46248;58.364;25.582;2023-01-28T10:47:09;101361.84;;;-2.77;88.08
59767;BME280;46248;58.364;25.582;2023-01-28T10:50:32;101330.06;;;-2.87;87.71
59767;BME280;46248;58.364;25.582;2023-01-28T10:53:54;101345.75;;;-2.67;87.75
59767;BME280;46248;58.364;25.582;2023-01-28T10:57:17;101335.56;;;-2.64;87.64
59767;BME280;46248;58.364;25.582;2023-01-28T11:00:39;101329.75;;;-2.54;87.67
59767;BME280;46248;58.364;25.582;2023-01-28T11:04:03;101329.00;;;-2.46;87.00
59767;BME280;46248;58.364;25.582;2023-01-28T11:07:27;101321.28;;;-2.46;86.19
59767;BME280;46248;58.364;25.582;2023-01-28T11:10:49;101306.69;;;-2.52;86.23
59767;BME280;46248;58.364;25.582;2023-01-28T11:14:19;101292.09;;;-2.55;86.51
59767;BME280;46248;58.364;25.582;2023-01-28T11:17:41;101278.50;;;-2.50;86.07
59767;BME280;46248;58.364;25.582;2023-01-28T11:21:16;101263.97;;;-2.48;86.29
59767;BME280;46248;58.364;25.582;2023-01-28T11:24:41;101253.72;;;-2.48;86.06
59767;BME280;46248;58.364;25.582;2023-01-28T11:28:13;101254.69;;;-2.42;86.09
59767;BME280;46248;58.364;25.582;2023-01-28T11:31:41;101247.88;;;-2.40;85.71
59767;BME280;46248;58.364;25.582;2023-01-28T11:35:05;101215.22;;;-2.51;86.24
59767;BME280;46248;58.364;25.582;2023-01-28T11:38:28;101228.25;;;-2.38;85.76
59767;BME280;46248;58.364;25.582;2023-01-28T11:41:52;101235.97;;;-2.35;85.95
59767;BME280;46248;58.364;25.582;2023-01-28T11:45:16;101206.94;;;-2.32;85.91
59767;BME280;46248;58.364;25.582;2023-01-28T11:48:45;101209.47;;;-2.34;85.54
59767;BME280;46248;58.364;25.582;2023-01-28T11:52:17;101175.06;;;-2.53;85.23
59767;BME280;46248;58.364;25.582;2023-01-28T11:55:57;101193.19;;;-2.37;85.01
59767;BME280;46248;58.364;25.582;2023-01-28T12:03:40;101179.56;;;-2.35;85.60
59767;BME280;46248;58.364;25.582;2023-01-28T12:07:19;101161.56;;;-2.36;85.04
59767;BME280;46248;58.364;25.582;2023-01-28T12:10:56;101159.81;;;-2.40;84.58
59767;BME280;46248;58.364;25.582;2023-01-28T12:14:31;101158.03;;;-2.46;85.06
59767;BME280;46248;58.364;25.582;2023-01-28T12:18:06;101159.78;;;-2.45;85.32
59767;BME280;46248;58.364;25.582;2023-01-28T12:21:41;101147.00;;;-2.42;85.31
59767;BME280;46248;58.364;25.582;2023-01-28T12:25:25;101140.91;;;-2.48;84.05
59767;BME280;46248;58.364;25.582;2023-01-28T12:29:02;101124.69;;;-2.47;84.73
59767;BME280;46248;58.364;25.582;2023-01-28T12:32:37;101100.72;;;-2.51;85.21
59767;BME280;46248;58.364;25.582;2023-01-28T12:36:10;101108.50;;;-2.45;85.15
59767;BME280;46248;58.364;25.582;2023-01-28T12:39:48;101097.38;;;-2.42;84.81
59767;BME280;46248;58.364;25.582;2023-01-28T12:43:19;101095.66;;;-2.43;84.38
59767;BME280;46248;58.364;25.582;2023-01-28T12:46:49;101083.69;;;-2.44;84.76
59767;BME280;46248;58.364;25.582;2023-01-28T12:50:16;101070.88;;;-2.43;84.96
59767;BME280;46248;58.364;25.582;2023-01-28T12:53:45;101058.09;;;-2.40;84.34
59767;BME280;46248;58.364;25.582;2023-01-28T12:57:15;101041.88;;;-2.39;84.41
59767;BME280;46248;58.364;25.582;2023-01-28T13:00:42;101042.66;;;-2.43;84.37
59767;BME280;46248;58.364;25.582;2023-01-28T13:04:12;101046.97;;;-2.40;84.69
59767;BME280;46248;58.364;25.582;2023-01-28T13:07:40;101032.41;;;-2.43;84.25
59767;BME280;46248;58.364;25.582;2023-01-28T13:11:09;101029.81;;;-2.47;84.69
59767;BME280;46248;58.364;25.582;2023-01-28T13:14:33;101046.06;;;-2.45;84.40
59767;BME280;46248;58.364;25.582;2023-01-28T13:17:57;101058.81;;;-2.51;84.28
59767;BME280;46248;58.364;25.582;2023-01-28T13:21:32;101062.19;;;-2.57;85.59
59767;BME280;46248;58.364;25.582;2023-01-28T13:25:17;101048.50;;;-2.59;84.93
59767;BME280;46248;58.364;25.582;2023-01-28T13:28:40;101048.50;;;-2.58;85.75
59767;BME280;46248;58.364;25.582;2023-01-28T13:32:30;101044.28;;;-2.54;85.73
59767;BME280;46248;58.364;25.582;2023-01-28T13:35:54;101036.50;;;-2.62;85.32
59767;BME280;46248;58.364;25.582;2023-01-28T13:39:20;101028.84;;;-2.60;85.94
59767;BME280;46248;58.364;25.582;2023-01-28T13:42:43;101014.22;;;-2.67;85.78
59767;BME280;46248;58.364;25.582;2023-01-28T13:46:07;101024.50;;;-2.64;86.15
59767;BME280;46248;58.364;25.582;2023-01-28T13:49:36;101005.63;;;-2.69;86.16
59767;BME280;46248;58.364;25.582;2023-01-28T13:53:03;101000.50;;;-2.69;86.28
59767;BME280;46248;58.364;25.582;2023-01-28T13:56:30;100997.13;;;-2.68;85.93
59767;BME280;46248;58.364;25.582;2023-01-28T13:59:58;101003.94;;;-2.72;86.05
59767;BME280;46248;58.364;25.582;2023-01-28T14:03:57;100989.31;;;-2.79;86.25
59767;BME280;46248;58.364;25.582;2023-01-28T14:07:46;100997.00;;;-2.81;86.04
59767;BME280;46248;58.364;25.582;2023-01-28T14:11:38;101008.91;;;-2.83;86.08
59767;BME280;46248;58.364;25.582;2023-01-28T14:15:26;101011.44;;;-2.86;86.40
59767;BME280;46248;58.364;25.582;2023-01-28T14:18:59;101002.91;;;-2.86;86.64
59767;BME280;46248;58.364;25.582;2023-01-28T14:22:22;100966.78;;;-3.06;86.73
59767;BME280;46248;58.364;25.582;2023-01-28T14:25:57;100994.28;;;-2.91;86.15
59767;BME280;46248;58.364;25.582;2023-01-28T14:29:35;100999.41;;;-2.91;86.68
59767;BME280;46248;58.364;25.582;2023-01-28T14:32:58;101002.78;;;-2.97;86.43
59767;BME280;46248;58.364;25.582;2023-01-28T14:36:20;100999.34;;;-2.99;86.87
59767;BME280;46248;58.364;25.582;2023-01-28T14:39:45;100995.00;;;-3.05;87.32
59767;BME280;46248;58.364;25.582;2023-01-28T14:43:13;100983.91;;;-3.04;87.36
59767;BME280;46248;58.364;25.582;2023-01-28T14:46:39;100981.38;;;-3.02;87.09
59767;BME280;46248;58.364;25.582;2023-01-28T14:50:17;100977.03;;;-3.06;87.73
59767;BME280;46248;58.364;25.582;2023-01-28T14:53:56;100962.50;;;-3.09;87.81
59767;BME280;46248;58.364;25.582;2023-01-28T14:57:38;100963.34;;;-3.11;88.02
59767;BME280;46248;58.364;25.582;2023-01-28T15:01:02;100963.31;;;-3.13;87.98
59767;BME280;46248;58.364;25.582;2023-01-28T15:04:34;100965.06;;;-3.10;87.84
59767;BME280;46248;58.364;25.582;2023-01-28T15:07:56;100977.00;;;-3.11;87.93
59767;BME280;46248;58.364;25.582;2023-01-28T15:11:20;100972.75;;;-3.10;88.43
59767;BME280;46248;58.364;25.582;2023-01-28T15:14:44;100982.13;;;-3.11;87.87
59767;BME280;46248;58.364;25.582;2023-01-28T15:18:14;100958.16;;;-3.16;87.69
59767;BME280;46248;58.364;25.582;2023-01-28T15:21:39;100962.47;;;-3.12;88.02
59767;BME280;46248;58.364;25.582;2023-01-28T15:25:02;100954.78;;;-3.13;88.29
59767;BME280;46248;58.364;25.582;2023-01-28T15:28:26;100956.50;;;-3.11;88.37
59767;BME280;46248;58.364;25.582;2023-01-28T15:31:50;100941.09;;;-3.14;88.58
59767;BME280;46248;58.364;25.582;2023-01-28T15:35:12;100942.81;;;-3.13;88.57
59767;BME280;46248;58.364;25.582;2023-01-28T15:38:36;100911.16;;;-3.19;88.07
59767;BME280;46248;58.364;25.582;2023-01-28T15:42:00;100895.81;;;-3.16;88.28
59767;BME280;46248;58.364;25.582;2023-01-28T15:45:25;100892.38;;;-3.18;88.76
59767;BME280;46248;58.364;25.582;2023-01-28T15:48:54;100899.22;;;-3.19;88.41
59767;BME280;46248;58.364;25.582;2023-01-28T15:52:19;100891.50;;;-3.24;88.24
59767;BME280;46248;58.364;25.582;2023-01-28T15:55:44;100885.53;;;-3.18;88.53
59767;BME280;46248;58.364;25.582;2023-01-28T15:59:17;100883.84;;;-3.19;88.33
59767;BME280;46248;58.364;25.582;2023-01-28T16:02:44;100881.22;;;-3.25;88.30
59767;BME280;46248;58.364;25.582;2023-01-28T16:06:07;100871.84;;;-3.22;88.80
59767;BME280;46248;58.364;25.582;2023-01-28T16:09:32;100869.31;;;-3.20;88.66
59767;BME280;46248;58.364;25.582;2023-01-28T16:13:02;100854.81;;;-3.18;88.60
59767;BME280;46248;58.364;25.582;2023-01-28T16:16:30;100836.00;;;-3.22;88.37
59767;BME280;46248;58.364;25.582;2023-01-28T16:19:56;100841.16;;;-3.20;88.29
59767;BME280;46248;58.364;25.582;2023-01-28T16:23:21;100846.28;;;-3.20;88.36
59767;BME280;46248;58.364;25.582;2023-01-28T16:26:55;100853.06;;;-3.24;88.23
59767;BME280;46248;58.364;25.582;2023-01-28T16:30:18;100834.28;;;-3.23;88.25
59767;BME280;46248;58.364;25.582;2023-01-28T16:33:40;100835.16;;;-3.24;88.59
59767;BME280;46248;58.364;25.582;2023-01-28T16:37:08;100836.81;;;-3.26;88.56
59767;BME280;46248;58.364;25.582;2023-01-28T16:40:31;100823.13;;;-3.28;88.75
59767;BME280;46248;58.364;25.582;2023-01-28T16:43:54;100817.19;;;-3.27;88.75
59767;BME280;46248;58.364;25.582;2023-01-28T16:47:17;100813.78;;;-3.26;88.56
59767;BME280;46248;58.364;25.582;2023-01-28T16:50:41;100813.81;;;-3.23;89.02
59767;BME280;46248;58.364;25.582;2023-01-28T16:54:03;100802.72;;;-3.22;88.88
59767;BME280;46248;58.364;25.582;2023-01-28T16:57:26;100806.16;;;-3.19;88.86
59767;BME280;46248;58.364;25.582;2023-01-28T17:00:48;100796.75;;;-3.20;88.44
59767;BME280;46248;58.364;25.582;2023-01-28T17:04:12;100784.78;;;-3.22;88.64
59767;BME280;46248;58.364;25.582;2023-01-28T17:07:34;100775.38;;;-3.26;88.53
59767;BME280;46248;58.364;25.582;2023-01-28T17:10:56;100772.81;;;-3.21;88.26
59767;BME280;46248;58.364;25.582;2023-01-28T17:14:18;100790.75;;;-3.21;88.44
59767;BME280;46248;58.364;25.582;2023-01-28T17:17:40;100779.69;;;-3.20;88.54
59767;BME280;46248;58.364;25.582;2023-01-28T17:21:04;100767.75;;;-3.19;89.03
59767;BME280;46248;58.364;25.582;2023-01-28T17:24:28;100764.25;;;-3.28;89.21
59767;BME280;46248;58.364;25.582;2023-01-28T17:27:50;100778.84;;;-3.20;89.54
59767;BME280;46248;58.364;25.582;2023-01-28T17:31:13;100774.53;;;-3.22;89.98
59767;BME280;46248;58.364;25.582;2023-01-28T17:34:35;100782.22;;;-3.23;90.62
59767;BME280;46248;58.364;25.582;2023-01-28T17:38:00;100757.38;;;-3.30;90.72
59767;BME280;46248;58.364;25.582;2023-01-28T17:41:22;100772.81;;;-3.26;91.49
59767;BME280;46248;58.364;25.582;2023-01-28T17:44:44;100772.81;;;-3.26;91.60
59767;BME280;46248;58.364;25.582;2023-01-28T17:48:06;100761.69;;;-3.28;92.03